sensor_id;sensor_type;location;lat;lon;timestamp;pressure;altitude;pressure_sealevel;temperature;humidity
76257;BME280;65074;50.436;8.672;2024-03-08T00:00:14;99652.66;;;0.73;100.00
76257;BME280;65074;50.436;8.672;2024-03-08T00:02:39;99648.75;;;0.69;100.00
76257;BME280;65074;50.436;8.672;2024-03-08T00:05:06;99651.41;;;0.69;100.00
76257;BME280;65074;50.436;8.672;2024-03-08T00:07:31;99637.53;;;0.67;100.00
76257;BME280;65074;50.436;8.672;2024-03-08T00:09:57;99641.50;;;0.62;100.00
76257;BME280;65074;50.436;8.672;2024-03-08T00:12:23;99636.28;;;0.54;100.00
76257;BME280;65074;50.436;8.672;2024-03-08T00:14:48;99640.34;;;0.42;100.00
76257;BME280;65074;50.436;8.672;2024-03-08T00:17:14;99638.72;;;0.41;100.00
76257;BME280;65074;50.436;8.672;2024-03-08T00:19:40;99633.59;;;0.40;100.00
76257;BME280;65074;50.436;8.672;2024-03-08T00:22:06;99643.09;;;0.34;100.00
76257;BME280;65074;50.436;8.672;2024-03-08T00:24:33;99634.19;;;0.27;100.00
76257;BME280;65074;50.436;8.672;2024-03-08T00:26:58;99627.03;;;0.13;100.00
76257;BME280;65074;50.436;8.672;2024-03-08T00:29:24;99638.78;;;0.11;100.00
76257;BME280;65074;50.436;8.672;2024-03-08T00:31:49;99632.53;;;0.04;100.00
76257;BME280;65074;50.436;8.672;2024-03-08T00:34:15;99631.06;;;0.01;100.00
76257;BME280;65074;50.436;8.672;2024-03-08T00:36:41;99625.59;;;0.03;100.00
76257;BME280;65074;50.436;8.672;2024-03-08T00:39:06;99629.59;;;-0.02;100.00
76257;BME280;65074;50.436;8.672;2024-03-08T00:41:32;99630.13;;;-0.06;100.00
76257;BME280;65074;50.436;8.672;2024-03-08T00:43:58;99621.91;;;-0.11;100.00
76257;BME280;65074;50.436;8.672;2024-03-08T00:46:23;99618.63;;;-0.13;100.00
76257;BME280;65074;50.436;8.672;2024-03-08T00:48:48;99611.38;;;-0.19;100.00
76257;BME280;65074;50.436;8.672;2024-03-08T00:51:14;99607.44;;;-0.23;100.00
76257;BME280;65074;50.436;8.672;2024-03-08T00:53:41;99601.31;;;-0.24;100.00
76257;BME280;65074;50.436;8.672;2024-03-08T00:56:08;99613.25;;;-0.28;100.00
76257;BME280;65074;50.436;8.672;2024-03-08T00:58:36;99603.84;;;-0.30;100.00
76257;BME280;65074;50.436;8.672;2024-03-08T01:01:02;99605.84;;;-0.32;100.00
76257;BME280;65074;50.436;8.672;2024-03-08T01:03:27;99595.97;;;-0.38;100.00
76257;BME280;65074;50.436;8.672;2024-03-08T01:05:53;99595.78;;;-0.37;100.00
76257;BME280;65074;50.436;8.672;2024-03-08T01:08:18;99598.59;;;-0.38;100.00
76257;BME280;65074;50.436;8.672;2024-03-08T01:10:44;99595.34;;;-0.48;100.00
76257;BME280;65074;50.436;8.672;2024-03-08T01:13:09;99595.34;;;-0.48;100.00
76257;BME280;65074;50.436;8.672;2024-03-08T01:15:35;99588.56;;;-0.43;100.00
76257;BME280;65074;50.436;8.672;2024-03-08T01:18:00;99578.94;;;-0.36;100.00
76257;BME280;65074;50.436;8.672;2024-03-08T01:20:26;99577.66;;;-0.40;100.00
76257;BME280;65074;50.436;8.672;2024-03-08T01:22:53;99574.88;;;-0.24;100.00
76257;BME280;65074;50.436;8.672;2024-03-08T01:25:18;99562.94;;;-0.20;100.00
76257;BME280;65074;50.436;8.672;2024-03-08T01:27:43;99573.91;;;-0.23;100.00
76257;BME280;65074;50.436;8.672;2024-03-08T01:30:09;99571.91;;;-0.21;100.00
76257;BME280;65074;50.436;8.672;2024-03-08T01:32:35;99565.34;;;-0.25;100.00
76257;BME280;65074;50.436;8.672;2024-03-08T01:35:00;99564.31;;;-0.24;100.00
76257;BME280;65074;50.436;8.672;2024-03-08T01:37:26;99556.44;;;-0.32;100.00
76257;BME280;65074;50.436;8.672;2024-03-08T01:39:51;99550.19;;;-0.39;100.00
76257;BME280;65074;50.436;8.672;2024-03-08T01:42:17;99552.00;;;-0.39;100.00
76257;BME280;65074;50.436;8.672;2024-03-08T01:44:43;99543.75;;;-0.36;100.00
76257;BME280;65074;50.436;8.672;2024-03-08T01:47:10;99554.22;;;-0.43;100.00
76257;BME280;65074;50.436;8.672;2024-03-08T01:49:36;99542.84;;;-0.51;100.00
76257;BME280;65074;50.436;8.672;2024-03-08T01:52:02;99547.38;;;-0.60;100.00
76257;BME280;65074;50.436;8.672;2024-03-08T01:54:28;99533.00;;;-0.57;100.00
76257;BME280;65074;50.436;8.672;2024-03-08T01:56:56;99527.06;;;-0.59;100.00
76257;BME280;65074;50.436;8.672;2024-03-08T01:59:25;99530.66;;;-0.52;100.00
76257;BME280;65074;50.436;8.672;2024-03-08T02:01:54;99525.53;;;-0.54;100.00
76257;BME280;65074;50.436;8.672;2024-03-08T02:04:20;99517.13;;;-0.57;100.00
76257;BME280;65074;50.436;8.672;2024-03-08T02:06:46;99521.09;;;-0.61;100.00
76257;BME280;65074;50.436;8.672;2024-03-08T02:09:14;99517.19;;;-0.66;100.00
76257;BME280;65074;50.436;8.672;2024-03-08T02:11:41;99517.41;;;-0.75;100.00
76257;BME280;65074;50.436;8.672;2024-03-08T02:14:06;99515.22;;;-0.72;100.00
76257;BME280;65074;50.436;8.672;2024-03-08T02:16:35;99511.94;;;-0.74;100.00
76257;BME280;65074;50.436;8.672;2024-03-08T02:19:00;99512.31;;;-0.77;100.00
76257;BME280;65074;50.436;8.672;2024-03-08T02:21:25;99504.72;;;-0.80;100.00
76257;BME280;65074;50.436;8.672;2024-03-08T02:23:54;99500.44;;;-0.81;100.00
76257;BME280;65074;50.436;8.672;2024-03-08T02:26:20;99494.84;;;-0.86;100.00
76257;BME280;65074;50.436;8.672;2024-03-08T02:28:46;99511.22;;;-0.90;100.00
76257;BME280;65074;50.436;8.672;2024-03-08T02:31:11;99493.56;;;-0.90;100.00
76257;BME280;65074;50.436;8.672;2024-03-08T02:33:37;99494.88;;;-0.94;100.00
76257;BME280;65074;50.436;8.672;2024-03-08T02:36:02;99491.91;;;-0.91;100.00
76257;BME280;65074;50.436;8.672;2024-03-08T02:38:28;99493.69;;;-0.91;100.00
76257;BME280;65074;50.436;8.672;2024-03-08T02:40:53;99488.13;;;-0.96;100.00
76257;BME280;65074;50.436;8.672;2024-03-08T02:43:20;99481.44;;;-1.07;100.00
76257;BME280;65074;50.436;8.672;2024-03-08T02:45:47;99483.56;;;-1.10;100.00
76257;BME280;65074;50.436;8.672;2024-03-08T02:48:14;99480.09;;;-1.11;100.00
76257;BME280;65074;50.436;8.672;2024-03-08T02:50:39;99477.31;;;-1.09;100.00
76257;BME280;65074;50.436;8.672;2024-03-08T02:53:05;99481.28;;;-1.13;100.00
76257;BME280;65074;50.436;8.672;2024-03-08T02:55:31;99476.38;;;-1.16;100.00
76257;BME280;65074;50.436;8.672;2024-03-08T02:57:56;99479.34;;;-1.19;100.00
76257;BME280;65074;50.436;8.672;2024-03-08T03:00:23;99471.13;;;-1.24;100.00
76257;BME280;65074;50.436;8.672;2024-03-08T03:02:49;99477.75;;;-1.28;100.00
76257;BME280;65074;50.436;8.672;2024-03-08T03:05:22;99478.72;;;-1.29;100.00
76257;BME280;65074;50.436;8.672;2024-03-08T03:07:48;99478.22;;;-1.33;100.00
76257;BME280;65074;50.436;8.672;2024-03-08T03:10:13;99474.41;;;-1.31;100.00
76257;BME280;65074;50.436;8.672;2024-03-08T03:12:42;99468.50;;;-1.33;100.00
76257;BME280;65074;50.436;8.672;2024-03-08T03:15:08;99467.53;;;-1.32;100.00
76257;BME280;65074;50.436;8.672;2024-03-08T03:17:33;99465.41;;;-1.36;100.00
76257;BME280;65074;50.436;8.672;2024-03-08T03:19:58;99468.50;;;-1.33;100.00
76257;BME280;65074;50.436;8.672;2024-03-08T03:22:24;99462.25;;;-1.40;100.00
76257;BME280;65074;50.436;8.672;2024-03-08T03:24:50;99467.22;;;-1.45;100.00
76257;BME280;65074;50.436;8.672;2024-03-08T03:27:16;99464.13;;;-1.48;100.00
76257;BME280;65074;50.436;8.672;2024-03-08T03:29:43;99465.09;;;-1.49;100.00
76257;BME280;65074;50.436;8.672;2024-03-08T03:32:12;99467.41;;;-1.46;100.00
76257;BME280;65074;50.436;8.672;2024-03-08T03:34:38;99462.13;;;-1.46;100.00
76257;BME280;65074;50.436;8.672;2024-03-08T03:37:04;99465.44;;;-1.52;100.00
76257;BME280;65074;50.436;8.672;2024-03-08T03:39:30;99461.31;;;-1.55;100.00
76257;BME280;65074;50.436;8.672;2024-03-08T03:42:13;99459.34;;;-1.53;100.00
76257;BME280;65074;50.436;8.672;2024-03-08T03:44:40;99461.97;;;-1.53;100.00
76257;BME280;65074;50.436;8.672;2024-03-08T03:47:05;99449.16;;;-1.56;100.00
76257;BME280;65074;50.436;8.672;2024-03-08T03:49:32;99451.28;;;-1.59;100.00
76257;BME280;65074;50.436;8.672;2024-03-08T03:51:58;99451.28;;;-1.59;100.00
76257;BME280;65074;50.436;8.672;2024-03-08T03:54:24;99451.81;;;-1.64;100.00
76257;BME280;65074;50.436;8.672;2024-03-08T03:56:49;99450.16;;;-1.65;100.00
76257;BME280;65074;50.436;8.672;2024-03-08T03:59:18;99445.69;;;-1.64;100.00
76257;BME280;65074;50.436;8.672;2024-03-08T04:01:44;99442.94;;;-1.71;100.00
76257;BME280;65074;50.436;8.672;2024-03-08T04:04:09;99443.91;;;-1.72;100.00
76257;BME280;65074;50.436;8.672;2024-03-08T04:06:34;99441.97;;;-1.78;100.00
76257;BME280;65074;50.436;8.672;2024-03-08T04:09:00;99444.94;;;-1.81;100.00
76257;BME280;65074;50.436;8.672;2024-03-08T04:11:25;99440.13;;;-1.77;100.00
76257;BME280;65074;50.436;8.672;2024-03-08T04:13:50;99439.66;;;-1.81;100.00
76257;BME280;65074;50.436;8.672;2024-03-08T04:16:17;99435.03;;;-1.87;100.00
76257;BME280;65074;50.436;8.672;2024-03-08T04:18:44;99435.22;;;-1.88;100.00
76257;BME280;65074;50.436;8.672;2024-03-08T04:21:09;99436.38;;;-1.91;100.00
76257;BME280;65074;50.436;8.672;2024-03-08T04:23:35;99434.56;;;-1.90;100.00
76257;BME280;65074;50.436;8.672;2024-03-08T04:26:02;99433.09;;;-1.93;100.00
76257;BME280;65074;50.436;8.672;2024-03-08T04:28:28;99431.75;;;-1.89;100.00
76257;BME280;65074;50.436;8.672;2024-03-08T04:30:54;99426.34;;;-1.95;100.00
76257;BME280;65074;50.436;8.672;2024-03-08T04:33:19;99427.16;;;-1.95;100.00
76257;BME280;65074;50.436;8.672;2024-03-08T04:35:46;99426.47;;;-1.89;100.00
76257;BME280;65074;50.436;8.672;2024-03-08T04:38:12;99427.97;;;-1.86;100.00
76257;BME280;65074;50.436;8.672;2024-03-08T04:40:37;99429.09;;;-1.81;100.00
76257;BME280;65074;50.436;8.672;2024-03-08T04:43:03;99422.19;;;-1.90;100.00
76257;BME280;65074;50.436;8.672;2024-03-08T04:45:29;99425.19;;;-2.01;100.00
76257;BME280;65074;50.436;8.672;2024-03-08T04:47:54;99418.78;;;-2.07;100.00
76257;BME280;65074;50.436;8.672;2024-03-08T04:50:19;99426.53;;;-2.05;100.00
76257;BME280;65074;50.436;8.672;2024-03-08T04:52:45;99429.50;;;-2.08;100.00
76257;BME280;65074;50.436;8.672;2024-03-08T04:55:10;99432.78;;;-2.06;100.00
76257;BME280;65074;50.436;8.672;2024-03-08T04:57:35;99426.03;;;-2.09;100.00
76257;BME280;65074;50.436;8.672;2024-03-08T05:00:04;99419.28;;;-2.11;100.00
76257;BME280;65074;50.436;8.672;2024-03-08T05:02:39;99413.50;;;-2.15;100.00
76257;BME280;65074;50.436;8.672;2024-03-08T05:05:05;99421.78;;;-2.18;100.00
76257;BME280;65074;50.436;8.672;2024-03-08T05:07:31;99416.50;;;-2.18;100.00
76257;BME280;65074;50.436;8.672;2024-03-08T05:09:58;99415.81;;;-2.20;100.00
76257;BME280;65074;50.436;8.672;2024-03-08T05:12:23;99411.56;;;-2.21;100.00
76257;BME280;65074;50.436;8.672;2024-03-08T05:14:48;99406.28;;;-2.21;100.00
76257;BME280;65074;50.436;8.672;2024-03-08T05:17:15;99413.53;;;-2.23;100.00
76257;BME280;65074;50.436;8.672;2024-03-08T05:19:41;99411.38;;;-2.19;100.00
76257;BME280;65074;50.436;8.672;2024-03-08T05:22:07;99411.38;;;-2.19;100.00
76257;BME280;65074;50.436;8.672;2024-03-08T05:24:33;99408.94;;;-2.21;100.00
76257;BME280;65074;50.436;8.672;2024-03-08T05:26:59;99411.56;;;-2.21;100.00
76257;BME280;65074;50.436;8.672;2024-03-08T05:29:25;99408.09;;;-2.21;100.00
76257;BME280;65074;50.436;8.672;2024-03-08T05:31:51;99410.09;;;-2.23;100.00
76257;BME280;65074;50.436;8.672;2024-03-08T05:34:17;99411.41;;;-2.27;100.00
76257;BME280;65074;50.436;8.672;2024-03-08T05:36:45;99406.94;;;-2.27;100.00
76257;BME280;65074;50.436;8.672;2024-03-08T05:39:15;99409.75;;;-2.28;100.00
76257;BME280;65074;50.436;8.672;2024-03-08T05:41:44;99411.41;;;-2.27;100.00
76257;BME280;65074;50.436;8.672;2024-03-08T05:44:10;99406.28;;;-2.29;100.00
76257;BME280;65074;50.436;8.672;2024-03-08T05:46:36;99402.50;;;-2.26;100.00
76257;BME280;65074;50.436;8.672;2024-03-08T05:49:06;99408.28;;;-2.23;100.00
76257;BME280;65074;50.436;8.672;2024-03-08T05:51:35;99405.28;;;-2.20;100.00
76257;BME280;65074;50.436;8.672;2024-03-08T05:54:04;99399.88;;;-2.18;100.00
76257;BME280;65074;50.436;8.672;2024-03-08T05:56:35;99401.03;;;-2.21;100.00
76257;BME280;65074;50.436;8.672;2024-03-08T05:59:01;99398.84;;;-2.17;100.00
76257;BME280;65074;50.436;8.672;2024-03-08T06:01:27;99398.84;;;-2.17;100.00
76257;BME280;65074;50.436;8.672;2024-03-08T06:03:53;99405.28;;;-2.12;100.00
76257;BME280;65074;50.436;8.672;2024-03-08T06:06:21;99409.06;;;-2.06;100.00
76257;BME280;65074;50.436;8.672;2024-03-08T06:08:50;99406.59;;;-2.08;100.00
76257;BME280;65074;50.436;8.672;2024-03-08T06:11:16;99405.13;;;-2.10;100.00
76257;BME280;65074;50.436;8.672;2024-03-08T06:13:45;99405.09;;;-2.02;100.00
76257;BME280;65074;50.436;8.672;2024-03-08T06:16:11;99398.97;;;-1.94;100.00
76257;BME280;65074;50.436;8.672;2024-03-08T06:18:37;99400.13;;;-1.89;100.00
76257;BME280;65074;50.436;8.672;2024-03-08T06:21:06;99400.63;;;-1.85;100.00
76257;BME280;65074;50.436;8.672;2024-03-08T06:23:32;99392.84;;;-1.79;100.00
76257;BME280;65074;50.436;8.672;2024-03-08T06:25:57;99393.50;;;-1.77;100.00
76257;BME280;65074;50.436;8.672;2024-03-08T06:28:23;99395.63;;;-1.72;100.00
76257;BME280;65074;50.436;8.672;2024-03-08T06:30:48;99404.16;;;-1.62;100.00
76257;BME280;65074;50.436;8.672;2024-03-08T06:33:13;99403.28;;;-1.55;100.00
76257;BME280;65074;50.436;8.672;2024-03-08T06:35:39;99408.56;;;-1.55;100.00
76257;BME280;65074;50.436;8.672;2024-03-08T06:38:04;99402.75;;;-1.42;100.00
76257;BME280;65074;50.436;8.672;2024-03-08T06:40:30;99401.56;;;-1.32;100.00
76257;BME280;65074;50.436;8.672;2024-03-08T06:42:55;99398.38;;;-1.27;100.00
76257;BME280;65074;50.436;8.672;2024-03-08T06:45:20;99404.72;;;-1.13;100.00
76257;BME280;65074;50.436;8.672;2024-03-08T06:48:07;99404.00;;;-0.99;100.00
76257;BME280;65074;50.436;8.672;2024-03-08T06:50:35;99400.94;;;-0.88;100.00
76257;BME280;65074;50.436;8.672;2024-03-08T06:53:04;99406.28;;;-0.74;100.00
76257;BME280;65074;50.436;8.672;2024-03-08T06:55:29;99399.13;;;-0.65;100.00
76257;BME280;65074;50.436;8.672;2024-03-08T06:57:54;99405.84;;;-0.54;100.00
76257;BME280;65074;50.436;8.672;2024-03-08T07:00:20;99396.63;;;-0.44;100.00
76257;BME280;65074;50.436;8.672;2024-03-08T07:02:46;99402.16;;;-0.31;100.00
76257;BME280;65074;50.436;8.672;2024-03-08T07:05:14;99394.72;;;-0.13;100.00
76257;BME280;65074;50.436;8.672;2024-03-08T07:07:39;99399.81;;;0.04;100.00
76257;BME280;65074;50.436;8.672;2024-03-08T07:10:06;99394.72;;;0.17;100.00
76257;BME280;65074;50.436;8.672;2024-03-08T07:12:37;99395.81;;;0.37;100.00
76257;BME280;65074;50.436;8.672;2024-03-08T07:15:02;99388.31;;;0.55;100.00
76257;BME280;65074;50.436;8.672;2024-03-08T07:17:28;99387.91;;;0.73;100.00
76257;BME280;65074;50.436;8.672;2024-03-08T07:19:53;99383.47;;;0.94;100.00
76257;BME280;65074;50.436;8.672;2024-03-08T07:22:19;99384.59;;;1.21;100.00
76257;BME280;65074;50.436;8.672;2024-03-08T07:24:44;99381.09;;;1.42;100.00
76257;BME280;65074;50.436;8.672;2024-03-08T07:30:15;99377.22;;;1.93;100.00
76257;BME280;65074;50.436;8.672;2024-03-08T07:33:00;99373.91;;;2.19;100.00
76257;BME280;65074;50.436;8.672;2024-03-08T07:35:28;99374.63;;;2.40;100.00
76257;BME280;65074;50.436;8.672;2024-03-08T07:37:54;99369.03;;;2.63;100.00
76257;BME280;65074;50.436;8.672;2024-03-08T07:40:25;99364.41;;;2.85;100.00
76257;BME280;65074;50.436;8.672;2024-03-08T07:42:51;99362.19;;;3.01;100.00
76257;BME280;65074;50.436;8.672;2024-03-08T07:45:16;99360.19;;;3.16;100.00
76257;BME280;65074;50.436;8.672;2024-03-08T07:47:42;99364.31;;;3.32;99.43
76257;BME280;65074;50.436;8.672;2024-03-08T07:50:08;99364.72;;;3.49;98.37
76257;BME280;65074;50.436;8.672;2024-03-08T07:52:34;99349.59;;;3.62;94.82
76257;BME280;65074;50.436;8.672;2024-03-08T07:55:00;99354.28;;;3.67;93.00
76257;BME280;65074;50.436;8.672;2024-03-08T07:57:25;99354.91;;;3.82;92.04
76257;BME280;65074;50.436;8.672;2024-03-08T07:59:51;99348.56;;;3.89;91.30
76257;BME280;65074;50.436;8.672;2024-03-08T08:02:16;99349.75;;;4.07;92.86
76257;BME280;65074;50.436;8.672;2024-03-08T08:04:42;99338.66;;;4.16;90.88
76257;BME280;65074;50.436;8.672;2024-03-08T08:07:10;99338.59;;;4.36;90.88
76257;BME280;65074;50.436;8.672;2024-03-08T08:09:35;99341.00;;;4.50;88.34
76257;BME280;65074;50.436;8.672;2024-03-08T08:12:00;99338.91;;;4.66;88.46
76257;BME280;65074;50.436;8.672;2024-03-08T08:14:29;99334.13;;;4.81;86.99
76257;BME280;65074;50.436;8.672;2024-03-08T08:16:55;99323.81;;;4.91;86.11
76257;BME280;65074;50.436;8.672;2024-03-08T08:19:22;99325.19;;;5.00;84.39
76257;BME280;65074;50.436;8.672;2024-03-08T08:21:47;99326.13;;;5.12;84.69
76257;BME280;65074;50.436;8.672;2024-03-08T08:24:13;99318.41;;;5.28;84.05
76257;BME280;65074;50.436;8.672;2024-03-08T08:26:39;99319.97;;;5.43;82.69
76257;BME280;65074;50.436;8.672;2024-03-08T08:29:05;99316.00;;;5.52;80.52
76257;BME280;65074;50.436;8.672;2024-03-08T08:31:32;99310.75;;;5.63;81.72
76257;BME280;65074;50.436;8.672;2024-03-08T08:33:58;99308.34;;;5.80;80.79
76257;BME280;65074;50.436;8.672;2024-03-08T08:36:26;99307.31;;;5.81;78.08
76257;BME280;65074;50.436;8.672;2024-03-08T08:38:53;99304.16;;;5.90;76.54
76257;BME280;65074;50.436;8.672;2024-03-08T08:41:23;99302.03;;;5.99;76.61
76257;BME280;65074;50.436;8.672;2024-03-08T08:43:48;99300.50;;;6.10;75.50
76257;BME280;65074;50.436;8.672;2024-03-08T08:46:18;99291.72;;;6.03;74.21
76257;BME280;65074;50.436;8.672;2024-03-08T08:48:44;99291.28;;;6.06;74.31
76257;BME280;65074;50.436;8.672;2024-03-08T08:51:13;99284.00;;;6.13;75.79
76257;BME280;65074;50.436;8.672;2024-03-08T08:53:41;99289.50;;;6.18;74.98
76257;BME280;65074;50.436;8.672;2024-03-08T08:56:08;99280.31;;;6.32;74.17
76257;BME280;65074;50.436;8.672;2024-03-08T08:58:34;99281.25;;;6.37;73.07
76257;BME280;65074;50.436;8.672;2024-03-08T09:01:00;99281.63;;;6.41;73.42
76257;BME280;65074;50.436;8.672;2024-03-08T09:03:26;99278.13;;;6.40;72.17
76257;BME280;65074;50.436;8.672;2024-03-08T09:05:53;99270.97;;;6.52;70.50
76257;BME280;65074;50.436;8.672;2024-03-08T09:08:18;99261.94;;;6.53;71.81
76257;BME280;65074;50.436;8.672;2024-03-08T09:10:45;99264.41;;;6.67;71.59
76257;BME280;65074;50.436;8.672;2024-03-08T09:13:13;99258.69;;;6.81;70.75
76257;BME280;65074;50.436;8.672;2024-03-08T09:15:39;99268.84;;;7.02;70.02
76257;BME280;65074;50.436;8.672;2024-03-08T09:18:06;99256.44;;;7.08;68.27
76257;BME280;65074;50.436;8.672;2024-03-08T09:20:31;99250.84;;;7.21;66.97
76257;BME280;65074;50.436;8.672;2024-03-08T09:22:57;99255.03;;;7.29;68.39
76257;BME280;65074;50.436;8.672;2024-03-08T09:25:23;99255.28;;;7.39;66.27
76257;BME280;65074;50.436;8.672;2024-03-08T09:27:48;99243.88;;;7.43;66.37
76257;BME280;65074;50.436;8.672;2024-03-08T09:30:15;99234.72;;;7.39;65.28
76257;BME280;65074;50.436;8.672;2024-03-08T09:32:40;99240.53;;;7.48;65.05
76257;BME280;65074;50.436;8.672;2024-03-08T09:35:06;99237.88;;;7.48;65.24
76257;BME280;65074;50.436;8.672;2024-03-08T09:37:33;99237.84;;;7.59;64.40
76257;BME280;65074;50.436;8.672;2024-03-08T09:39:59;99225.53;;;7.70;64.71
76257;BME280;65074;50.436;8.672;2024-03-08T09:42:24;99225.16;;;7.78;63.24
76257;BME280;65074;50.436;8.672;2024-03-08T09:44:50;99220.94;;;7.94;63.26
76257;BME280;65074;50.436;8.672;2024-03-08T09:47:17;99214.75;;;7.93;62.86
76257;BME280;65074;50.436;8.672;2024-03-08T09:49:43;99207.66;;;7.99;62.18
76257;BME280;65074;50.436;8.672;2024-03-08T09:52:09;99200.09;;;8.07;61.77
76257;BME280;65074;50.436;8.672;2024-03-08T09:54:35;99195.13;;;8.27;61.98
76257;BME280;65074;50.436;8.672;2024-03-08T09:57:03;99195.59;;;8.36;61.19
76257;BME280;65074;50.436;8.672;2024-03-08T09:59:29;99192.31;;;8.22;61.06
76257;BME280;65074;50.436;8.672;2024-03-08T10:02:03;99186.72;;;8.35;59.46
76257;BME280;65074;50.436;8.672;2024-03-08T10:04:29;99184.75;;;8.31;59.15
76257;BME280;65074;50.436;8.672;2024-03-08T10:06:59;99185.78;;;8.41;59.67
76257;BME280;65074;50.436;8.672;2024-03-08T10:09:25;99170.44;;;8.54;59.46
76257;BME280;65074;50.436;8.672;2024-03-08T10:11:56;99171.00;;;8.56;59.49
76257;BME280;65074;50.436;8.672;2024-03-08T10:14:24;99170.72;;;8.69;58.21
76257;BME280;65074;50.436;8.672;2024-03-08T10:16:49;99158.69;;;8.71;57.86
76257;BME280;65074;50.436;8.672;2024-03-08T10:19:15;99151.13;;;8.85;57.42
76257;BME280;65074;50.436;8.672;2024-03-08T10:21:48;99146.50;;;8.97;57.23
76257;BME280;65074;50.436;8.672;2024-03-08T10:24:14;99149.44;;;8.95;56.78
76257;BME280;65074;50.436;8.672;2024-03-08T10:26:39;99138.53;;;9.02;56.68
76257;BME280;65074;50.436;8.672;2024-03-08T10:29:05;99134.16;;;8.96;57.62
76257;BME280;65074;50.436;8.672;2024-03-08T10:31:33;99123.91;;;9.09;56.42
76257;BME280;65074;50.436;8.672;2024-03-08T10:33:58;99121.94;;;9.22;56.23
76257;BME280;65074;50.436;8.672;2024-03-08T10:36:23;99127.16;;;9.28;55.25
76257;BME280;65074;50.436;8.672;2024-03-08T10:38:51;99130.63;;;9.29;53.67
76257;BME280;65074;50.436;8.672;2024-03-08T10:41:19;99131.84;;;9.21;54.15
76257;BME280;65074;50.436;8.672;2024-03-08T10:44:03;99122.69;;;9.17;54.06
76257;BME280;65074;50.436;8.672;2024-03-08T10:49:16;99113.28;;;9.36;53.54
76257;BME280;65074;50.436;8.672;2024-03-08T10:51:43;99113.19;;;9.48;53.25
76257;BME280;65074;50.436;8.672;2024-03-08T10:54:10;99107.69;;;9.59;53.64
76257;BME280;65074;50.436;8.672;2024-03-08T10:56:40;99108.50;;;9.81;53.65
76257;BME280;65074;50.436;8.672;2024-03-08T10:59:08;99107.31;;;9.94;52.72
76257;BME280;65074;50.436;8.672;2024-03-08T11:01:33;99106.66;;;10.09;51.65
76257;BME280;65074;50.436;8.672;2024-03-08T11:03:59;99095.50;;;10.17;52.17
76257;BME280;65074;50.436;8.672;2024-03-08T11:09:03;99085.19;;;10.35;52.06
76257;BME280;65074;50.436;8.672;2024-03-08T11:11:38;99080.31;;;10.32;50.98
76257;BME280;65074;50.436;8.672;2024-03-08T11:14:44;99077.81;;;10.53;50.88
76257;BME280;65074;50.436;8.672;2024-03-08T11:17:09;99071.25;;;10.70;50.45
76257;BME280;65074;50.436;8.672;2024-03-08T11:19:35;99060.22;;;10.40;50.18
76257;BME280;65074;50.436;8.672;2024-03-08T11:22:02;99079.28;;;10.65;50.04
76257;BME280;65074;50.436;8.672;2024-03-08T11:24:36;99070.78;;;10.78;49.38
76257;BME280;65074;50.436;8.672;2024-03-08T11:27:04;99066.84;;;10.91;50.58
76257;BME280;65074;50.436;8.672;2024-03-08T11:32:11;99054.09;;;10.76;49.83
76257;BME280;65074;50.436;8.672;2024-03-08T11:34:40;99062.09;;;10.66;49.60
76257;BME280;65074;50.436;8.672;2024-03-08T11:37:16;99063.00;;;10.82;49.32
76257;BME280;65074;50.436;8.672;2024-03-08T11:39:54;99060.78;;;11.10;48.67
76257;BME280;65074;50.436;8.672;2024-03-08T11:42:25;99047.19;;;11.37;48.98
76257;BME280;65074;50.436;8.672;2024-03-08T11:44:51;99038.06;;;11.48;47.95
76257;BME280;65074;50.436;8.672;2024-03-08T11:47:17;99036.47;;;11.47;47.98
76257;BME280;65074;50.436;8.672;2024-03-08T11:49:43;99024.13;;;11.61;47.35
76257;BME280;65074;50.436;8.672;2024-03-08T11:52:14;99030.16;;;11.84;46.66
76257;BME280;65074;50.436;8.672;2024-03-08T11:54:41;99029.16;;;12.55;45.63
76257;BME280;65074;50.436;8.672;2024-03-08T11:57:06;99014.44;;;13.42;43.30
76257;BME280;65074;50.436;8.672;2024-03-08T11:59:32;99006.75;;;14.52;41.34
76257;BME280;65074;50.436;8.672;2024-03-08T12:02:02;99010.91;;;15.73;39.81
76257;BME280;65074;50.436;8.672;2024-03-08T12:04:29;99010.13;;;15.91;38.09
76257;BME280;65074;50.436;8.672;2024-03-08T12:06:54;99007.22;;;16.75;37.51
76257;BME280;65074;50.436;8.672;2024-03-08T12:09:19;98999.63;;;17.32;36.47
76257;BME280;65074;50.436;8.672;2024-03-08T12:11:50;98991.19;;;18.10;34.44
76257;BME280;65074;50.436;8.672;2024-03-08T12:14:16;98987.50;;;18.72;33.42
76257;BME280;65074;50.436;8.672;2024-03-08T12:16:42;98990.50;;;18.62;34.00
76257;BME280;65074;50.436;8.672;2024-03-08T12:19:09;98982.59;;;19.14;32.80
76257;BME280;65074;50.436;8.672;2024-03-08T12:21:36;98972.16;;;19.46;31.12
76257;BME280;65074;50.436;8.672;2024-03-08T12:24:09;98975.25;;;19.71;30.45
76257;BME280;65074;50.436;8.672;2024-03-08T12:26:38;98974.16;;;19.97;30.97
76257;BME280;65074;50.436;8.672;2024-03-08T12:29:26;98973.09;;;20.24;30.49
76257;BME280;65074;50.436;8.672;2024-03-08T12:31:54;98965.28;;;20.69;30.23
76257;BME280;65074;50.436;8.672;2024-03-08T12:34:20;98967.69;;;20.79;29.23
76257;BME280;65074;50.436;8.672;2024-03-08T12:36:47;98954.94;;;21.00;29.31
76257;BME280;65074;50.436;8.672;2024-03-08T12:39:16;98960.56;;;20.95;28.74
76257;BME280;65074;50.436;8.672;2024-03-08T12:41:43;98958.72;;;20.79;29.40
76257;BME280;65074;50.436;8.672;2024-03-08T12:44:09;98946.84;;;20.66;28.24
76257;BME280;65074;50.436;8.672;2024-03-08T12:46:37;98944.94;;;20.41;29.58
76257;BME280;65074;50.436;8.672;2024-03-08T12:49:07;98942.97;;;20.67;29.23
76257;BME280;65074;50.436;8.672;2024-03-08T12:51:33;98934.03;;;20.41;28.98
76257;BME280;65074;50.436;8.672;2024-03-08T12:53:58;98937.25;;;20.89;28.85
76257;BME280;65074;50.436;8.672;2024-03-08T12:56:32;98935.56;;;21.22;27.44
76257;BME280;65074;50.436;8.672;2024-03-08T12:58:59;98924.28;;;20.69;28.42
76257;BME280;65074;50.436;8.672;2024-03-08T13:01:26;98922.66;;;20.85;28.71
76257;BME280;65074;50.436;8.672;2024-03-08T13:03:55;98918.44;;;20.07;29.33
76257;BME280;65074;50.436;8.672;2024-03-08T13:06:20;98911.59;;;20.73;29.42